createdAt,value
2022-08-11T00:00:09.758Z,96.00
2022-08-11T00:02:48.083Z,96.50
2022-08-11T00:05:20.832Z,97.30
2022-08-11T00:07:55.581Z,98.70
2022-08-11T00:10:29.245Z,99.30
2022-08-11T00:13:04.615Z,97.70
2022-08-11T00:15:43.948Z,96.40
2022-08-11T00:18:12.997Z,97.50
2022-08-11T00:20:44.036Z,98.90
2022-08-11T00:23:18.277Z,99.50
2022-08-11T00:25:51.222Z,99.90
2022-08-11T00:28:33.889Z,99.90
2022-08-11T00:31:08.023Z,99.90
2022-08-11T00:33:46.894Z,99.90
2022-08-11T00:36:24.881Z,99.90
2022-08-11T00:38:54.936Z,99.90
2022-08-11T00:45:02.880Z,99.90
2022-08-11T00:48:39.372Z,99.90
2022-08-11T00:55:02.574Z,99.90
2022-08-11T00:59:35.605Z,99.90
2022-08-11T01:06:43.721Z,99.90
2022-08-11T01:10:43.856Z,99.90
2022-08-11T01:16:14.481Z,99.90
2022-08-11T01:23:52.849Z,99.90
2022-08-11T01:31:13.814Z,99.90
2022-08-11T01:36:56.986Z,99.90
2022-08-11T01:43:27.698Z,99.90
2022-08-11T01:48:42.422Z,99.90
2022-08-11T01:52:08.714Z,99.90
2022-08-11T01:57:37.417Z,99.90
2022-08-11T02:00:21.860Z,99.90
2022-08-11T02:03:40.779Z,99.90
2022-08-11T02:06:56.705Z,99.90
2022-08-11T02:10:35.498Z,99.90
2022-08-11T02:15:05.034Z,99.90
2022-08-11T02:20:29.557Z,99.90
2022-08-11T02:24:06.524Z,99.90
2022-08-11T02:27:07.518Z,99.90
2022-08-11T02:30:23.879Z,99.90
2022-08-11T02:33:27.444Z,99.90
2022-08-11T02:36:24.557Z,99.90
2022-08-11T02:39:08.960Z,99.90
2022-08-11T02:43:19.643Z,99.90
2022-08-11T02:48:18.798Z,99.90
2022-08-11T02:52:22.641Z,99.90
2022-08-11T02:55:56.461Z,99.90
2022-08-11T02:59:17.733Z,99.90
2022-08-11T03:02:05.231Z,99.90
2022-08-11T03:06:30.729Z,99.90
2022-08-11T03:09:42.533Z,99.90
2022-08-11T03:12:41.374Z,99.90
2022-08-11T03:15:40.313Z,99.90
2022-08-11T03:18:42.288Z,99.90
2022-08-11T03:21:25.248Z,99.90
2022-08-11T03:25:12.903Z,99.90
2022-08-11T03:27:59.741Z,99.90
2022-08-11T03:31:27.729Z,99.90
2022-08-11T03:34:10.582Z,99.90
2022-08-11T03:42:08.458Z,99.90
2022-08-11T03:49:27.197Z,99.90
2022-08-11T03:52:23.029Z,99.90
2022-08-11T03:58:28.921Z,99.90
2022-08-11T04:05:24.758Z,99.90
2022-08-11T04:17:07.315Z,99.90
2022-08-11T04:20:29.248Z,99.90
2022-08-11T04:24:12.822Z,99.90
2022-08-11T04:28:06.096Z,99.90
2022-08-11T04:31:51.948Z,99.90
2022-08-11T04:39:22.395Z,99.90
2022-08-11T04:45:59.921Z,99.90
2022-08-11T04:53:23.468Z,99.90
2022-08-11T04:56:38.230Z,99.90
2022-08-11T05:02:24.062Z,99.90
2022-08-11T05:08:53.697Z,99.90
2022-08-11T05:14:49.712Z,99.90
2022-08-11T05:17:48.858Z,99.90
2022-08-11T05:20:33.849Z,99.90
2022-08-11T05:23:24.868Z,99.90
2022-08-11T05:26:46.313Z,99.90
2022-08-11T05:29:58.795Z,99.90
2022-08-11T05:32:54.221Z,99.90
2022-08-11T05:36:01.350Z,99.90
2022-08-11T05:38:52.426Z,99.90
2022-08-11T05:41:44.491Z,99.90
2022-08-11T05:44:36.473Z,99.90
2022-08-11T05:47:22.463Z,99.90
2022-08-11T05:50:13.645Z,99.90
2022-08-11T05:53:05.090Z,99.80
2022-08-11T05:56:03.599Z,99.10
2022-08-11T05:58:42.770Z,98.30
2022-08-11T06:01:25.540Z,97.60
2022-08-11T06:04:15.515Z,96.10
2022-08-11T06:07:10.575Z,95.50
2022-08-11T06:09:49.967Z,96.20
2022-08-11T06:12:24.075Z,96.30
2022-08-11T06:14:55.815Z,95.50
2022-08-11T06:17:38.924Z,95.30
2022-08-11T06:20:11.662Z,95.30
2022-08-11T06:22:43.118Z,94.20
2022-08-11T06:25:11.705Z,94.00
2022-08-11T06:27:43.473Z,93.60
2022-08-11T06:30:13.303Z,93.40
2022-08-11T06:32:45.557Z,93.50
2022-08-11T06:35:30.396Z,93.60
2022-08-11T06:38:23.273Z,93.10
2022-08-11T06:41:17.624Z,92.10
2022-08-11T06:44:16.108Z,92.00
2022-08-11T06:46:55.255Z,91.80
2022-08-11T06:49:52.155Z,92.00
2022-08-11T06:52:35.900Z,91.70
2022-08-11T06:55:57.843Z,91.00
2022-08-11T06:58:50.933Z,91.50
2022-08-11T07:02:31.073Z,90.20
2022-08-11T07:05:20.583Z,89.10
2022-08-11T07:12:42.870Z,86.30
2022-08-11T07:16:10.966Z,86.30
2022-08-11T07:19:00.684Z,86.00
2022-08-11T07:22:01.633Z,83.90
2022-08-11T07:25:04.329Z,80.70
2022-08-11T07:28:19.220Z,81.80
2022-08-11T07:30:48.693Z,79.70
2022-08-11T07:34:06.916Z,79.80
2022-08-11T07:36:48.612Z,80.00
2022-08-11T07:39:24.520Z,80.30
2022-08-11T07:41:56.461Z,79.40
2022-08-11T07:44:34.344Z,79.80
2022-08-11T07:47:20.359Z,80.70
2022-08-11T07:50:10.806Z,81.30
2022-08-11T07:52:39.839Z,80.80
2022-08-11T07:55:16.549Z,79.90
2022-08-11T07:58:16.959Z,79.60
2022-08-11T08:01:21.946Z,77.90
2022-08-11T08:04:08.629Z,77.20
2022-08-11T08:06:57.110Z,77.40
2022-08-11T08:09:43.574Z,75.60
2022-08-11T08:12:30.409Z,75.30
2022-08-11T08:15:16.400Z,75.80
2022-08-11T08:18:09.529Z,75.30
2022-08-11T08:20:55.375Z,76.00
2022-08-11T08:23:35.052Z,76.30
2022-08-11T08:26:26.179Z,76.00
2022-08-11T08:30:46.477Z,74.50
2022-08-11T08:33:18.873Z,74.90
2022-08-11T08:35:54.556Z,74.20
2022-08-11T08:38:23.700Z,75.50
2022-08-11T08:40:55.991Z,74.70
2022-08-11T08:43:24.381Z,74.70
2022-08-11T08:45:56.783Z,73.80
2022-08-11T08:48:25.770Z,74.80
2022-08-11T08:51:29.263Z,75.20
2022-08-11T08:54:36.340Z,75.60
2022-08-11T08:57:06.132Z,74.20
2022-08-11T08:59:48.865Z,75.40
2022-08-11T09:02:19.717Z,75.00
2022-08-11T09:05:06.992Z,72.80
2022-08-11T09:07:39.503Z,73.90
2022-08-11T09:10:11.225Z,73.80
2022-08-11T09:12:41.949Z,74.00
2022-08-11T09:15:11.205Z,72.20
2022-08-11T09:18:02.805Z,72.70
2022-08-11T09:20:34.527Z,72.00
2022-08-11T09:26:40.453Z,74.00
2022-08-11T09:29:10.837Z,74.00
2022-08-11T09:31:40.352Z,72.50
2022-08-11T09:34:13.086Z,71.50
2022-08-11T09:37:01.609Z,72.70
2022-08-11T09:39:49.730Z,73.30
2022-08-11T09:42:23.191Z,73.40
2022-08-11T09:44:52.436Z,72.10
2022-08-11T09:47:30.169Z,71.10
2022-08-11T09:50:02.733Z,71.80
2022-08-11T09:52:35.592Z,72.40
2022-08-11T09:55:10.221Z,71.30
2022-08-11T09:58:03.513Z,70.30
2022-08-11T10:00:39.611Z,68.90
2022-08-11T10:03:24.850Z,68.60
2022-08-11T10:06:17.157Z,69.70
2022-08-11T10:08:47.160Z,69.40
2022-08-11T10:11:21.131Z,67.90
2022-08-11T10:14:33.100Z,69.20
2022-08-11T10:17:08.185Z,70.70
2022-08-11T10:19:39.458Z,70.50
2022-08-11T10:22:27.788Z,68.60
2022-08-11T10:25:15.188Z,67.90
2022-08-11T10:28:28.350Z,66.00
2022-08-11T10:31:30.492Z,66.60
2022-08-11T10:34:10.962Z,66.50
2022-08-11T10:36:52.371Z,69.10
2022-08-11T10:39:22.086Z,68.80
2022-08-11T10:42:10.765Z,68.80
2022-08-11T10:44:51.131Z,67.90
2022-08-11T10:47:38.586Z,68.00
2022-08-11T10:50:32.507Z,67.40
2022-08-11T10:53:19.106Z,66.80
2022-08-11T10:56:06.253Z,66.50
2022-08-11T10:58:46.555Z,65.30
2022-08-11T11:01:16.206Z,67.10
2022-08-11T11:03:43.964Z,65.00
2022-08-11T11:08:52.090Z,65.60
2022-08-11T11:13:32.152Z,64.40
2022-08-11T11:16:17.253Z,63.80
2022-08-11T11:18:44.878Z,63.90
2022-08-11T11:21:28.055Z,62.80
2022-08-11T11:24:39.231Z,65.30
2022-08-11T11:29:05.456Z,63.70
2022-08-11T11:33:22.449Z,63.40
2022-08-11T11:36:34.193Z,62.80
2022-08-11T11:39:00.968Z,63.70
2022-08-11T11:41:28.840Z,63.70
2022-08-11T11:43:57.384Z,62.90
2022-08-11T11:46:31.004Z,62.70
2022-08-11T11:49:06.374Z,63.00
2022-08-11T11:51:47.403Z,62.10
2022-08-11T11:54:29.259Z,63.40
2022-08-11T11:59:01.103Z,62.10
2022-08-11T12:01:29.189Z,63.70
2022-08-11T12:03:57.673Z,63.50
2022-08-11T12:06:26.947Z,63.20
2022-08-11T12:08:57.183Z,63.40
2022-08-11T12:11:45.455Z,62.30
2022-08-11T12:14:19.157Z,64.90
2022-08-11T12:16:48.290Z,62.40
2022-08-11T12:19:22.135Z,62.40
2022-08-11T12:22:07.568Z,62.10
2022-08-11T12:24:54.524Z,62.60
2022-08-11T12:27:25.203Z,61.90
2022-08-11T12:30:05.137Z,61.50
2022-08-11T12:32:35.588Z,60.70
2022-08-11T12:35:04.097Z,61.90
2022-08-11T12:37:38.735Z,62.60
2022-08-11T12:40:43.517Z,63.40
2022-08-11T12:44:03.952Z,61.70
2022-08-11T12:46:38.941Z,61.90
2022-08-11T12:49:45.578Z,62.80
2022-08-11T12:52:26.354Z,62.90
2022-08-11T12:56:07.379Z,61.00
2022-08-11T12:58:39.356Z,62.10
2022-08-11T13:01:25.261Z,60.40
2022-08-11T13:04:11.276Z,61.20
2022-08-11T13:06:38.887Z,61.20
2022-08-11T13:09:08.763Z,60.70
2022-08-11T13:11:57.607Z,60.90
2022-08-11T13:14:27.074Z,60.80
2022-08-11T13:17:12.087Z,60.10
2022-08-11T13:19:42.067Z,60.10
2022-08-11T13:22:11.854Z,60.30
2022-08-11T13:24:39.887Z,60.60
2022-08-11T13:27:07.362Z,60.60
2022-08-11T13:29:35.353Z,61.70
2022-08-11T13:32:03.023Z,61.00
2022-08-11T13:34:31.630Z,59.90
2022-08-11T13:37:03.450Z,60.70
2022-08-11T13:39:32.711Z,60.30
2022-08-11T13:42:02.976Z,60.80
2022-08-11T13:44:35.260Z,60.20
2022-08-11T13:47:08.142Z,59.20
2022-08-11T13:49:42.019Z,60.50
2022-08-11T13:52:15.892Z,60.00
2022-08-11T13:54:47.363Z,60.20
2022-08-11T13:58:08.322Z,60.10
2022-08-11T14:00:52.689Z,59.30
2022-08-11T14:04:30.584Z,59.70
2022-08-11T14:07:02.527Z,58.90
2022-08-11T14:09:37.162Z,59.40
2022-08-11T14:12:32.033Z,59.70
2022-08-11T14:15:24.834Z,59.10
2022-08-11T14:18:02.437Z,59.50
2022-08-11T14:20:59.992Z,59.60
2022-08-11T14:23:34.812Z,58.60
2022-08-11T14:26:20.295Z,59.40
2022-08-11T14:28:47.636Z,60.30
2022-08-11T14:31:15.958Z,59.80
2022-08-11T14:33:59.746Z,59.10
2022-08-11T14:36:39.180Z,60.40
2022-08-11T14:39:13.770Z,59.70
2022-08-11T14:42:11.844Z,59.60
2022-08-11T14:45:10.711Z,59.40
2022-08-11T14:47:43.154Z,59.60
2022-08-11T14:50:22.489Z,59.10
2022-08-11T14:52:57.903Z,59.10
2022-08-11T14:55:49.956Z,59.80
2022-08-11T14:58:19.680Z,59.40
2022-08-11T15:00:49.645Z,59.40
2022-08-11T15:03:16.994Z,60.00
2022-08-11T15:05:57.472Z,59.50
2022-08-11T15:08:53.784Z,59.30
2022-08-11T15:11:49.002Z,60.10
2022-08-11T15:14:35.261Z,58.80
2022-08-11T15:17:07.152Z,59.40
2022-08-11T15:19:40.071Z,59.80
2022-08-11T15:22:28.259Z,60.10
2022-08-11T15:24:57.562Z,60.10
2022-08-11T15:27:43.784Z,59.70
2022-08-11T15:30:33.232Z,59.90
2022-08-11T15:33:29.135Z,60.10
2022-08-11T15:36:15.507Z,59.80
2022-08-11T15:38:57.718Z,61.30
2022-08-11T15:41:58.830Z,61.90
2022-08-11T15:45:05.334Z,60.40
2022-08-11T15:47:56.952Z,61.30
2022-08-11T15:50:38.124Z,61.20
2022-08-11T15:53:17.303Z,62.40
2022-08-11T15:55:46.411Z,62.90
2022-08-11T15:58:33.199Z,62.20
2022-08-11T16:01:21.517Z,61.50
2022-08-11T16:04:12.611Z,63.50
2022-08-11T16:07:10.830Z,61.90
2022-08-11T16:10:23.230Z,62.90
2022-08-11T16:15:04.161Z,62.30
2022-08-11T16:17:40.158Z,62.20
2022-08-11T16:20:09.710Z,62.80
2022-08-11T16:22:40.912Z,63.30
2022-08-11T16:27:04.377Z,63.10
2022-08-11T16:29:40.062Z,63.40
2022-08-11T16:32:16.469Z,63.50
2022-08-11T16:35:16.450Z,62.60
2022-08-11T16:38:03.388Z,63.60
2022-08-11T16:40:32.913Z,63.70
2022-08-11T16:43:21.116Z,64.60
2022-08-11T16:46:07.165Z,65.50
2022-08-11T16:48:38.492Z,65.80
2022-08-11T16:51:08.019Z,65.30
2022-08-11T16:53:46.071Z,65.20
2022-08-11T16:56:42.782Z,65.50
2022-08-11T16:59:36.672Z,65.80
2022-08-11T17:02:11.115Z,66.30
2022-08-11T17:06:53.252Z,66.80
2022-08-11T17:09:42.465Z,67.00
2022-08-11T17:12:30.919Z,67.20
2022-08-11T17:15:02.812Z,66.10
2022-08-11T17:17:36.756Z,67.60
2022-08-11T17:20:42.954Z,67.90
2022-08-11T17:23:29.611Z,69.10
2022-08-11T17:26:03.190Z,68.70
2022-08-11T17:28:33.879Z,68.10
2022-08-11T17:31:22.415Z,67.90
2022-08-11T17:34:09.700Z,68.90
2022-08-11T17:36:44.553Z,69.80
2022-08-11T17:39:13.647Z,69.40
2022-08-11T17:42:00.787Z,69.50
2022-08-11T17:44:49.709Z,69.70
2022-08-11T17:47:36.249Z,70.00
2022-08-11T17:50:17.109Z,70.70
2022-08-11T17:53:05.268Z,70.10
2022-08-11T17:55:54.005Z,69.80
2022-08-11T17:58:40.845Z,68.80
2022-08-11T18:01:10.359Z,69.60
2022-08-11T18:03:40.212Z,69.70
2022-08-11T18:06:12.632Z,69.60
2022-08-11T18:09:03.969Z,69.90
2022-08-11T18:12:10.410Z,72.40
2022-08-11T18:15:04.218Z,71.40
2022-08-11T18:17:50.708Z,73.90
2022-08-11T18:20:36.801Z,75.20
2022-08-11T18:23:46.282Z,75.80
2022-08-11T18:26:38.344Z,77.80
2022-08-11T18:29:27.360Z,78.40
2022-08-11T18:32:20.717Z,76.80
2022-08-11T18:35:11.350Z,75.90
2022-08-11T18:38:06.465Z,75.90
2022-08-11T18:40:54.311Z,77.70
2022-08-11T18:43:44.346Z,77.80
2022-08-11T18:46:33.208Z,77.80
2022-08-11T18:50:02.433Z,79.10
2022-08-11T18:52:53.133Z,83.10
2022-08-11T18:55:38.687Z,84.30
2022-08-11T18:58:33.154Z,83.10
2022-08-11T19:01:22.417Z,85.20
2022-08-11T19:04:11.923Z,84.80
2022-08-11T19:07:07.009Z,84.80
2022-08-11T19:09:55.624Z,87.50
2022-08-11T19:12:43.777Z,85.50
2022-08-11T19:15:31.408Z,84.30
2022-08-11T19:18:20.360Z,83.60
2022-08-11T19:21:07.032Z,84.20
2022-08-11T19:24:02.640Z,87.80
2022-08-11T19:26:50.473Z,88.50
2022-08-11T19:30:07.056Z,87.20
2022-08-11T19:32:59.786Z,86.70
2022-08-11T19:35:46.182Z,88.40
2022-08-11T19:38:32.776Z,89.40
2022-08-11T19:41:56.144Z,90.20
2022-08-11T19:44:43.490Z,90.10
2022-08-11T19:47:29.349Z,90.20
2022-08-11T19:50:21.611Z,90.80
2022-08-11T19:53:17.555Z,91.90
2022-08-11T19:56:06.745Z,91.30
2022-08-11T19:58:55.351Z,91.40
2022-08-11T20:02:12.634Z,91.00
2022-08-11T20:05:00.230Z,90.90
2022-08-11T20:07:48.172Z,91.30
2022-08-11T20:10:39.213Z,91.70
2022-08-11T20:13:29.232Z,91.80
2022-08-11T20:16:18.029Z,91.50
2022-08-11T20:19:07.530Z,92.50
2022-08-11T20:21:55.439Z,93.10
2022-08-11T20:24:42.248Z,93.00
2022-08-11T20:27:29.454Z,93.20
2022-08-11T20:30:17.815Z,92.90
2022-08-11T20:33:04.786Z,93.30
2022-08-11T20:35:53.253Z,93.60
2022-08-11T20:38:41.653Z,93.50
2022-08-11T20:41:29.132Z,92.70
2022-08-11T20:44:16.480Z,90.70
2022-08-11T20:47:04.135Z,91.90
2022-08-11T20:49:56.584Z,92.60
2022-08-11T20:52:48.087Z,90.90
2022-08-11T20:55:51.151Z,91.00
2022-08-11T21:01:56.971Z,92.00
2022-08-11T21:04:54.407Z,93.40
2022-08-11T21:07:43.159Z,93.50
2022-08-11T21:10:37.017Z,93.00
2022-08-11T21:13:25.771Z,92.40
2022-08-11T21:16:26.153Z,91.40
2022-08-11T21:20:00.245Z,93.40
2022-08-11T21:23:06.662Z,94.40
2022-08-11T21:26:03.356Z,94.40
2022-08-11T21:28:51.741Z,94.30
2022-08-11T21:31:39.148Z,95.00
2022-08-11T21:34:27.746Z,95.10
2022-08-11T21:37:13.525Z,95.00
2022-08-11T21:40:00.547Z,95.40
2022-08-11T21:42:48.945Z,95.90
2022-08-11T21:45:36.476Z,95.50
2022-08-11T21:48:25.579Z,95.60
2022-08-11T21:51:10.396Z,95.50
2022-08-11T21:53:56.533Z,95.20
2022-08-11T21:56:44.309Z,95.10
2022-08-11T21:59:34.126Z,95.20
2022-08-11T22:02:20.129Z,95.40
2022-08-11T22:05:06.082Z,96.20
2022-08-11T22:07:51.047Z,96.30
2022-08-11T22:10:41.998Z,94.10
2022-08-11T22:13:31.155Z,94.40
2022-08-11T22:16:17.790Z,96.60
2022-08-11T22:19:08.667Z,96.30
2022-08-11T22:22:03.084Z,96.20
2022-08-11T22:24:51.839Z,95.50
2022-08-11T22:27:38.104Z,94.50
2022-08-11T22:30:29.167Z,92.90
2022-08-11T22:33:24.387Z,92.70
2022-08-11T22:36:13.288Z,92.50
2022-08-11T22:39:02.854Z,92.40
2022-08-11T22:41:47.812Z,92.10
2022-08-11T22:44:32.674Z,92.00
2022-08-11T22:47:20.902Z,92.10
2022-08-11T22:50:15.244Z,92.20
2022-08-11T22:53:01.723Z,94.60
2022-08-11T22:55:49.406Z,95.50
2022-08-11T22:58:39.143Z,95.80
2022-08-11T23:01:24.591Z,95.50
2022-08-11T23:04:11.120Z,93.20
2022-08-11T23:07:01.334Z,92.80
2022-08-11T23:09:46.601Z,92.70
2022-08-11T23:12:31.957Z,92.40
2022-08-11T23:15:18.777Z,92.50
2022-08-11T23:18:04.701Z,92.50
2022-08-11T23:20:54.974Z,92.40
2022-08-11T23:23:43.319Z,92.20
2022-08-11T23:26:29.988Z,92.20
2022-08-11T23:29:17.288Z,94.00
2022-08-11T23:32:07.295Z,95.00
2022-08-11T23:35:04.252Z,93.60
2022-08-11T23:38:22.873Z,94.70
2022-08-11T23:41:08.250Z,95.50
2022-08-11T23:43:53.735Z,95.50
2022-08-11T23:46:43.323Z,95.30
2022-08-11T23:49:28.647Z,96.60
2022-08-11T23:52:15.539Z,97.40
2022-08-11T23:55:03.634Z,97.90
2022-08-11T23:57:49.565Z,97.70
